createdAt,value
2023-05-14T01:04:36.231Z,22.40
2023-05-14T01:06:50.691Z,11.90
2023-05-14T01:09:03.144Z,11.30
2023-05-14T01:11:13.446Z,12.40
2023-05-14T01:13:24.754Z,12.20
2023-05-14T01:15:33.611Z,12.70
2023-05-14T01:17:42.959Z,12.80
2023-05-14T01:19:49.752Z,12.20
2023-05-14T01:21:54.519Z,13.20
2023-05-14T01:23:59.215Z,13.80
2023-05-14T01:26:04.478Z,12.50
2023-05-14T01:28:16.823Z,12.40
2023-05-14T01:30:29.543Z,12.20
2023-05-14T01:32:35.600Z,11.30
2023-05-14T01:34:42.056Z,14.80
2023-05-14T01:36:48.504Z,12.70
2023-05-14T01:38:54.184Z,13.00
2023-05-14T01:41:02.713Z,11.80
2023-05-14T01:43:08.018Z,12.20
2023-05-14T01:45:14.128Z,12.50
2023-05-14T01:47:19.219Z,12.00
2023-05-14T01:49:23.958Z,12.60
2023-05-14T01:51:28.774Z,12.70
2023-05-14T01:53:33.460Z,12.40
2023-05-14T01:55:38.265Z,13.50
2023-05-14T01:57:42.882Z,12.60
2023-05-14T01:59:47.513Z,12.70
2023-05-14T02:01:52.318Z,14.00
2023-05-14T02:03:57.570Z,13.60
2023-05-14T02:06:02.314Z,12.70
2023-05-14T02:08:07.283Z,13.90
2023-05-14T02:10:12.683Z,13.50
2023-05-14T02:12:17.372Z,14.50
2023-05-14T02:14:22.112Z,13.20
2023-05-14T02:16:26.869Z,14.10
2023-05-14T02:18:32.080Z,13.40
2023-05-14T02:20:36.705Z,12.70
2023-05-14T02:22:41.399Z,14.70
2023-05-14T02:24:46.399Z,12.40
2023-05-14T02:26:51.228Z,14.70
2023-05-14T02:28:57.185Z,14.50
2023-05-14T02:31:02.536Z,16.70
2023-05-14T02:33:07.425Z,13.40
2023-05-14T02:35:12.680Z,14.00
2023-05-14T02:37:17.548Z,14.10
2023-05-14T02:39:22.358Z,13.60
2023-05-14T02:41:27.203Z,13.90
2023-05-14T02:43:32.097Z,14.80
2023-05-14T02:45:37.129Z,14.90
2023-05-14T02:47:41.969Z,14.30
2023-05-14T02:49:46.749Z,12.80
2023-05-14T02:51:51.598Z,14.30
2023-05-14T02:53:56.249Z,14.60
2023-05-14T02:56:01.256Z,12.80
2023-05-14T02:58:05.997Z,13.10
2023-05-14T03:00:13.144Z,14.40
2023-05-14T03:02:18.348Z,13.60
2023-05-14T03:04:23.539Z,13.90
2023-05-14T03:06:28.241Z,12.50
2023-05-14T03:08:32.870Z,16.40
2023-05-14T03:10:37.675Z,12.80
2023-05-14T03:12:42.508Z,15.40
2023-05-14T03:14:50.182Z,13.50
2023-05-14T03:16:55.076Z,12.90
2023-05-14T03:18:59.783Z,13.80
2023-05-14T03:21:04.818Z,12.40
2023-05-14T03:23:09.642Z,12.70
2023-05-14T03:25:14.377Z,13.50
2023-05-14T03:27:19.182Z,13.00
2023-05-14T03:29:24.406Z,12.10
2023-05-14T03:31:32.005Z,14.00
2023-05-14T03:33:37.007Z,14.90
2023-05-14T03:35:41.964Z,12.70
2023-05-14T03:37:49.408Z,12.60
2023-05-14T03:39:54.054Z,13.80
2023-05-14T03:41:58.962Z,13.80
2023-05-14T03:44:03.932Z,12.60
2023-05-14T03:46:09.057Z,12.50
2023-05-14T03:48:13.800Z,12.20
2023-05-14T03:50:18.516Z,12.60
2023-05-14T03:52:23.446Z,14.20
2023-05-14T03:54:28.124Z,13.90
2023-05-14T03:56:32.962Z,12.10
2023-05-14T03:58:37.570Z,16.00
2023-05-14T04:00:43.069Z,12.50
2023-05-14T04:02:48.567Z,11.00
2023-05-14T04:04:53.726Z,11.30
2023-05-14T04:06:58.574Z,13.20
2023-05-14T04:09:06.547Z,13.80
2023-05-14T04:11:11.418Z,12.00
2023-05-14T04:13:16.179Z,11.20
2023-05-14T04:15:21.693Z,11.90
2023-05-14T04:17:26.711Z,12.30
2023-05-14T04:19:31.597Z,12.50
2023-05-14T04:21:36.797Z,11.50
2023-05-14T04:23:41.571Z,12.90
2023-05-14T04:25:46.306Z,12.80
2023-05-14T04:27:51.122Z,12.50
2023-05-14T04:29:55.749Z,12.50
2023-05-14T04:32:00.492Z,12.80
2023-05-14T04:34:05.644Z,12.30
2023-05-14T04:36:10.770Z,14.20
2023-05-14T04:38:15.530Z,10.60
2023-05-14T04:40:20.536Z,11.80
2023-05-14T04:42:25.150Z,12.00
2023-05-14T04:44:33.669Z,14.90
2023-05-14T04:46:39.026Z,12.60
2023-05-14T04:48:43.909Z,12.70
2023-05-14T04:50:48.656Z,12.30
2023-05-14T04:52:53.350Z,12.80
2023-05-14T04:54:58.055Z,12.60
2023-05-14T04:57:02.738Z,12.90
2023-05-14T04:59:07.464Z,13.30
2023-05-14T05:01:12.233Z,11.30
2023-05-14T05:03:17.589Z,12.80
2023-05-14T05:05:23.136Z,13.30
2023-05-14T05:07:27.842Z,12.00
2023-05-14T05:09:35.548Z,12.60
2023-05-14T05:11:40.251Z,11.70
2023-05-14T05:13:45.198Z,11.30
2023-05-14T05:15:50.575Z,13.20
2023-05-14T05:17:55.365Z,13.00
2023-05-14T05:20:00.172Z,13.00
2023-05-14T05:22:05.148Z,11.80
2023-05-14T05:24:10.137Z,11.60
2023-05-14T05:26:14.806Z,12.20
2023-05-14T05:28:19.486Z,13.90
2023-05-14T05:30:24.548Z,10.70
2023-05-14T05:32:29.691Z,11.90
2023-05-14T05:34:34.766Z,11.90
2023-05-14T05:36:39.586Z,11.30
2023-05-14T05:38:44.281Z,13.10
2023-05-14T05:40:49.118Z,11.10
2023-05-14T05:42:53.819Z,12.30
2023-05-14T05:44:58.716Z,10.40
2023-05-14T05:47:03.650Z,10.30
2023-05-14T05:49:08.605Z,10.80
2023-05-14T05:51:13.511Z,10.30
2023-05-14T05:53:18.117Z,10.80
2023-05-14T05:55:23.170Z,9.70
2023-05-14T05:57:27.867Z,9.80
2023-05-14T05:59:32.883Z,8.60
2023-05-14T06:01:37.769Z,9.80
2023-05-14T06:03:42.758Z,9.80
2023-05-14T06:05:47.562Z,9.20
2023-05-14T06:07:52.509Z,10.70
2023-05-14T06:09:57.285Z,9.30
2023-05-14T06:12:02.008Z,10.20
2023-05-14T06:14:06.707Z,9.90
2023-05-14T06:16:11.655Z,9.30
2023-05-14T06:18:16.426Z,9.00
2023-05-14T06:20:21.778Z,9.60
2023-05-14T06:22:27.016Z,9.20
2023-05-14T06:24:31.877Z,12.00
2023-05-14T06:26:36.763Z,9.70
2023-05-14T06:28:41.374Z,11.20
2023-05-14T06:30:51.124Z,9.80
2023-05-14T06:32:55.779Z,9.60
2023-05-14T06:35:01.604Z,10.40
2023-05-14T06:37:06.732Z,9.80
2023-05-14T06:39:11.569Z,9.60
2023-05-14T06:41:16.829Z,10.50
2023-05-14T06:43:21.623Z,11.30
2023-05-14T06:45:26.343Z,9.50
2023-05-14T06:47:31.079Z,9.60
2023-05-14T06:49:36.315Z,9.40
2023-05-14T06:51:40.943Z,9.20
2023-05-14T06:53:45.648Z,9.00
2023-05-14T06:55:50.484Z,8.80
2023-05-14T06:57:55.213Z,9.00
2023-05-14T07:00:00.053Z,9.60
2023-05-14T07:02:04.853Z,8.20
2023-05-14T07:04:09.525Z,7.70
2023-05-14T07:06:14.234Z,8.10
2023-05-14T07:08:20.511Z,9.40
2023-05-14T07:10:25.470Z,8.10
2023-05-14T07:12:30.351Z,7.40
2023-05-14T07:14:35.100Z,8.30
2023-05-14T07:16:40.140Z,7.50
2023-05-14T07:18:44.997Z,7.80
2023-05-14T07:20:49.723Z,7.90
2023-05-14T07:22:54.913Z,8.50
2023-05-14T07:24:59.541Z,8.00
2023-05-14T07:27:04.767Z,7.40
2023-05-14T07:29:09.415Z,8.20
2023-05-14T07:31:14.196Z,8.40
2023-05-14T07:33:18.806Z,8.10
2023-05-14T07:35:23.608Z,7.80
2023-05-14T07:37:29.301Z,8.00
2023-05-14T07:39:33.984Z,8.50
2023-05-14T07:41:38.669Z,8.50
2023-05-14T07:43:43.784Z,7.70
2023-05-14T07:45:48.602Z,7.30
2023-05-14T07:47:53.228Z,8.40
2023-05-14T07:49:58.524Z,8.10
2023-05-14T07:52:03.279Z,8.10
2023-05-14T07:54:08.258Z,8.40
2023-05-14T07:56:12.872Z,8.30
2023-05-14T07:58:17.496Z,6.80
2023-05-14T08:00:22.521Z,6.80
2023-05-14T08:02:27.417Z,7.00
2023-05-14T08:04:32.154Z,7.80
2023-05-14T08:06:36.793Z,12.00
2023-05-14T08:08:41.693Z,8.20
2023-05-14T08:10:46.396Z,8.60
2023-05-14T08:12:51.109Z,8.10
2023-05-14T08:14:55.784Z,9.90
2023-05-14T08:17:00.623Z,7.90
2023-05-14T08:19:05.596Z,9.50
2023-05-14T08:21:10.280Z,8.50
2023-05-14T08:23:15.500Z,8.20
2023-05-14T08:25:20.327Z,8.80
2023-05-14T08:27:24.986Z,7.90
2023-05-14T08:29:29.610Z,8.90
2023-05-14T08:31:34.237Z,9.30
2023-05-14T08:33:38.859Z,9.80
2023-05-14T08:35:43.680Z,8.70
2023-05-14T08:37:48.406Z,14.40
2023-05-14T08:39:53.044Z,9.00
2023-05-14T08:42:00.438Z,9.00
2023-05-14T08:44:11.806Z,9.40
2023-05-14T08:46:21.440Z,7.90
2023-05-14T08:48:32.012Z,8.30
2023-05-14T08:50:37.025Z,8.70
2023-05-14T08:52:41.704Z,9.70
2023-05-14T08:54:48.146Z,9.10
2023-05-14T08:56:53.127Z,9.60
2023-05-14T08:58:57.837Z,8.30
2023-05-14T09:01:02.523Z,8.80
2023-05-14T09:03:08.350Z,10.60
2023-05-14T09:05:14.806Z,13.60
2023-05-14T09:07:19.827Z,9.30
2023-05-14T09:09:25.196Z,8.50
2023-05-14T09:11:30.025Z,9.10
2023-05-14T09:13:36.516Z,9.90
2023-05-14T09:15:41.377Z,9.30
2023-05-14T09:17:49.579Z,9.50
2023-05-14T09:19:54.675Z,10.40
2023-05-14T09:22:00.089Z,11.00
2023-05-14T09:24:05.367Z,7.80
2023-05-14T09:26:11.891Z,8.20
2023-05-14T09:28:18.680Z,7.40
2023-05-14T09:30:24.485Z,8.10
2023-05-14T09:32:35.051Z,8.10
2023-05-14T09:34:41.587Z,8.30
2023-05-14T09:36:46.310Z,7.80
2023-05-14T09:38:51.156Z,8.30
2023-05-14T09:40:56.192Z,8.70
2023-05-14T09:43:01.316Z,9.90
2023-05-14T09:45:07.659Z,7.90
2023-05-14T09:47:12.397Z,8.70
2023-05-14T09:49:18.707Z,8.50
2023-05-14T09:51:23.735Z,9.20
2023-05-14T09:53:28.470Z,8.50
2023-05-14T09:55:33.596Z,8.10
2023-05-14T09:57:38.305Z,8.60
2023-05-14T09:59:44.393Z,8.80
2023-05-14T10:01:49.895Z,8.10
2023-05-14T10:03:55.338Z,7.60
2023-05-14T10:06:04.662Z,9.40
2023-05-14T10:08:13.432Z,9.60
2023-05-14T10:10:21.921Z,9.10
2023-05-14T10:12:33.848Z,9.00
2023-05-14T10:14:43.140Z,8.80
2023-05-14T10:16:50.512Z,8.60
2023-05-14T10:19:00.790Z,10.30
2023-05-14T10:21:07.470Z,9.00
2023-05-14T10:23:13.000Z,9.80
2023-05-14T10:25:19.671Z,10.40
2023-05-14T10:27:24.904Z,10.00
2023-05-14T10:29:35.797Z,9.20
2023-05-14T10:31:52.246Z,8.80
2023-05-14T10:33:59.222Z,9.30
2023-05-14T10:36:06.533Z,10.50
2023-05-14T10:38:14.766Z,9.80
2023-05-14T10:40:23.191Z,9.70
2023-05-14T10:42:35.069Z,9.90
2023-05-14T10:44:47.053Z,9.30
2023-05-14T10:46:52.166Z,9.20
2023-05-14T10:48:58.315Z,9.40
2023-05-14T10:51:03.280Z,8.80
2023-05-14T10:53:13.006Z,9.90
2023-05-14T10:55:18.437Z,9.60
2023-05-14T10:57:24.980Z,8.70
2023-05-14T10:59:30.260Z,9.40
2023-05-14T11:01:34.951Z,9.10
2023-05-14T11:03:43.138Z,11.30
2023-05-14T11:05:48.746Z,9.80
2023-05-14T11:07:55.946Z,8.70
2023-05-14T11:10:04.405Z,9.90
2023-05-14T11:12:10.355Z,10.50
2023-05-14T11:14:15.010Z,10.60
2023-05-14T11:16:23.228Z,12.10
2023-05-14T11:18:33.323Z,10.70
2023-05-14T11:20:38.150Z,9.80
2023-05-14T11:22:44.891Z,11.50
2023-05-14T11:24:49.886Z,10.70
2023-05-14T11:26:54.720Z,11.00
2023-05-14T11:28:59.853Z,11.70
2023-05-14T11:31:04.509Z,10.00
2023-05-14T11:33:09.426Z,10.50
2023-05-14T11:35:14.729Z,9.80
2023-05-14T11:37:19.397Z,8.90
2023-05-14T11:39:24.031Z,8.40
2023-05-14T11:41:28.788Z,11.30
2023-05-14T11:43:36.175Z,12.10
2023-05-14T11:45:40.929Z,8.90
2023-05-14T11:47:45.633Z,12.30
2023-05-14T11:49:50.571Z,10.60
2023-05-14T11:52:00.375Z,10.90
2023-05-14T11:54:05.184Z,9.90
2023-05-14T11:56:10.042Z,10.80
2023-05-14T11:58:14.922Z,10.60
2023-05-14T12:00:20.727Z,10.10
2023-05-14T12:02:28.692Z,10.00
2023-05-14T12:04:33.704Z,10.10
2023-05-14T12:06:40.348Z,9.00
2023-05-14T12:08:47.618Z,9.90
2023-05-14T12:10:52.528Z,9.90
2023-05-14T12:12:57.349Z,10.30
2023-05-14T12:15:02.088Z,10.90
2023-05-14T12:17:14.653Z,10.60
2023-05-14T12:19:20.038Z,10.50
2023-05-14T12:21:26.427Z,9.60
2023-05-14T12:23:33.095Z,10.00
2023-05-14T12:25:39.597Z,11.00
2023-05-14T12:27:45.967Z,13.10
2023-05-14T12:29:50.877Z,11.90
2023-05-14T12:31:57.161Z,10.70
2023-05-14T12:34:02.264Z,12.10
2023-05-14T12:38:14.621Z,14.00
2023-05-14T12:40:19.445Z,11.30
2023-05-14T12:42:24.190Z,9.80
2023-05-14T12:44:29.083Z,11.00
2023-05-14T12:46:35.812Z,10.30
2023-05-14T12:48:40.487Z,11.60
2023-05-14T12:50:45.090Z,12.10
2023-05-14T12:52:49.754Z,10.00
2023-05-14T12:54:54.318Z,9.80
2023-05-14T12:56:59.113Z,11.60
2023-05-14T12:59:03.820Z,10.50
2023-05-14T13:01:08.528Z,10.30
2023-05-14T13:03:13.262Z,11.00
2023-05-14T13:05:18.307Z,9.90
2023-05-14T13:07:23.003Z,9.00
2023-05-14T13:09:27.752Z,14.70
2023-05-14T13:11:32.535Z,10.60
2023-05-14T13:13:37.212Z,11.10
2023-05-14T13:15:41.864Z,10.40
2023-05-14T13:17:46.492Z,10.80
2023-05-14T13:19:51.232Z,12.90
2023-05-14T13:21:55.958Z,11.60
2023-05-14T13:24:00.584Z,15.50
2023-05-14T13:26:07.986Z,14.60
2023-05-14T13:28:12.635Z,15.50
2023-05-14T13:30:18.812Z,21.30
2023-05-14T13:32:24.686Z,10.80
2023-05-14T13:34:29.384Z,12.60
2023-05-14T13:36:34.080Z,12.80
2023-05-14T13:38:38.882Z,10.20
2023-05-14T13:40:43.559Z,10.90
2023-05-14T13:42:48.225Z,11.90
2023-05-14T13:44:56.005Z,9.40
2023-05-14T13:47:00.756Z,10.60
2023-05-14T13:49:08.204Z,10.50
2023-05-14T13:51:12.920Z,10.20
2023-05-14T13:53:18.007Z,10.50
2023-05-14T13:55:22.942Z,12.20
2023-05-14T13:57:27.859Z,9.80
2023-05-14T13:59:32.464Z,9.70
2023-05-14T14:01:37.231Z,12.10
2023-05-14T14:03:41.873Z,10.10
2023-05-14T14:05:46.543Z,12.40
2023-05-14T14:07:52.918Z,11.50
2023-05-14T14:09:59.448Z,10.30
2023-05-14T14:12:04.885Z,10.50
2023-05-14T14:14:09.576Z,9.20
2023-05-14T14:16:14.331Z,10.00
2023-05-14T14:18:20.268Z,8.90
2023-05-14T14:20:24.941Z,11.10
2023-05-14T14:22:30.320Z,8.40
2023-05-14T14:24:34.997Z,10.30
2023-05-14T14:26:39.735Z,8.40
2023-05-14T14:28:44.457Z,10.00
2023-05-14T14:30:50.374Z,10.90
2023-05-14T14:32:55.132Z,11.90
2023-05-14T14:34:59.897Z,11.10
2023-05-14T14:37:05.120Z,12.20
2023-05-14T14:39:09.886Z,9.30
2023-05-14T14:41:14.620Z,10.10
2023-05-14T14:43:19.287Z,10.00
2023-05-14T14:45:24.657Z,9.60
2023-05-14T14:47:29.736Z,9.40
2023-05-14T14:49:34.433Z,8.40
2023-05-14T14:51:39.140Z,10.70
2023-05-14T14:53:43.789Z,10.20
2023-05-14T14:55:48.815Z,8.60
2023-05-14T14:57:53.399Z,9.60
2023-05-14T14:59:58.757Z,8.70
2023-05-14T15:02:04.331Z,8.50
2023-05-14T15:04:08.965Z,10.00
2023-05-14T15:06:13.720Z,9.20
2023-05-14T15:08:18.486Z,9.60
2023-05-14T15:10:23.274Z,9.60
2023-05-14T15:12:28.032Z,8.40
2023-05-14T15:14:32.761Z,9.10
2023-05-14T15:16:37.523Z,9.30
2023-05-14T15:18:42.389Z,9.60
2023-05-14T15:20:47.095Z,7.90
2023-05-14T15:22:52.376Z,9.80
2023-05-14T15:24:57.083Z,10.80
2023-05-14T15:27:01.739Z,10.60
2023-05-14T15:29:06.775Z,9.70
2023-05-14T15:31:11.567Z,8.10
2023-05-14T15:33:16.245Z,8.40
2023-05-14T15:35:21.013Z,9.90
2023-05-14T15:37:26.486Z,8.40
2023-05-14T15:39:31.204Z,8.70
2023-05-14T15:41:35.933Z,8.80
2023-05-14T15:43:40.662Z,8.80
2023-05-14T15:45:46.134Z,8.90
2023-05-14T15:47:50.828Z,9.70
2023-05-14T15:49:55.871Z,9.80
2023-05-14T15:52:01.001Z,9.80
2023-05-14T15:54:05.948Z,10.20
2023-05-14T15:56:10.952Z,9.00
2023-05-14T15:58:15.688Z,8.80
2023-05-14T16:00:21.533Z,9.00
2023-05-14T16:02:26.477Z,10.80
2023-05-14T16:04:31.147Z,9.70
2023-05-14T16:06:36.534Z,7.50
2023-05-14T16:08:41.213Z,9.80
2023-05-14T16:10:45.861Z,10.10
2023-05-14T16:12:50.488Z,9.10
2023-05-14T16:14:55.089Z,9.10
2023-05-14T16:16:59.799Z,9.30
2023-05-14T16:19:04.623Z,10.10
2023-05-14T16:21:09.333Z,9.20
2023-05-14T16:23:14.019Z,8.50
2023-05-14T16:25:18.892Z,7.80
2023-05-14T16:27:23.620Z,7.50
2023-05-14T16:29:28.287Z,11.10
2023-05-14T16:31:33.185Z,10.30
2023-05-14T16:33:37.833Z,9.10
2023-05-14T16:35:42.725Z,8.80
2023-05-14T16:37:47.377Z,8.10
2023-05-14T16:39:52.081Z,9.10
2023-05-14T16:41:56.791Z,9.10
2023-05-14T16:44:01.383Z,9.10
2023-05-14T16:46:08.996Z,9.30
2023-05-14T16:48:13.876Z,8.30
2023-05-14T16:50:18.691Z,8.80
2023-05-14T16:52:23.382Z,8.00
2023-05-14T16:54:28.152Z,9.20
2023-05-14T16:56:32.827Z,9.60
2023-05-14T16:58:37.664Z,9.50
2023-05-14T17:00:42.532Z,9.70
2023-05-14T17:02:47.392Z,8.70
2023-05-14T17:04:52.494Z,8.70
2023-05-14T17:06:57.587Z,10.40
2023-05-14T17:09:02.714Z,9.50
2023-05-14T17:11:07.744Z,9.10
2023-05-14T17:13:15.812Z,8.90
2023-05-14T17:15:20.627Z,10.20
2023-05-14T17:17:25.385Z,9.90
2023-05-14T17:19:30.236Z,8.00
2023-05-14T17:21:35.361Z,8.50
2023-05-14T17:23:40.071Z,7.90
2023-05-14T17:25:45.222Z,10.80
2023-05-14T17:27:49.930Z,9.70
2023-05-14T17:29:54.662Z,9.30
2023-05-14T17:31:59.643Z,9.90
2023-05-14T17:34:04.440Z,8.50
2023-05-14T17:36:09.434Z,8.70
2023-05-14T17:38:14.318Z,8.10
2023-05-14T17:40:19.205Z,7.30
2023-05-14T17:42:24.221Z,8.60
2023-05-14T17:44:29.063Z,8.70
2023-05-14T17:46:33.849Z,8.30
2023-05-14T17:48:38.642Z,8.50
2023-05-14T17:50:43.317Z,8.30
2023-05-14T17:52:48.157Z,8.40
2023-05-14T17:54:53.116Z,8.00
2023-05-14T17:57:00.996Z,8.00
2023-05-14T17:59:05.650Z,8.30
2023-05-14T18:01:11.108Z,8.90
2023-05-14T18:03:17.847Z,8.80
2023-05-14T18:05:24.012Z,9.10
2023-05-14T18:07:29.747Z,7.80
2023-05-14T18:09:34.963Z,8.40
2023-05-14T18:11:40.405Z,10.10
2023-05-14T18:13:45.057Z,9.10
2023-05-14T18:15:49.955Z,9.10
2023-05-14T18:17:54.878Z,8.50
2023-05-14T18:20:00.263Z,8.40
2023-05-14T18:22:05.740Z,8.40
2023-05-14T18:24:10.948Z,8.60
2023-05-14T18:26:16.975Z,9.70
2023-05-14T18:28:22.194Z,8.80
2023-05-14T18:30:27.413Z,8.20
2023-05-14T18:32:33.034Z,7.70
2023-05-14T18:34:37.839Z,8.10
2023-05-14T18:36:43.455Z,8.70
2023-05-14T18:38:48.320Z,8.30
2023-05-14T18:40:54.546Z,8.60
2023-05-14T18:43:01.093Z,8.70
2023-05-14T18:45:07.089Z,9.30
2023-05-14T18:47:12.470Z,9.00
2023-05-14T18:49:17.396Z,8.40
2023-05-14T18:51:22.800Z,7.80
2023-05-14T18:53:28.200Z,8.50
2023-05-14T18:55:33.283Z,7.90
2023-05-14T18:57:38.775Z,8.60
2023-05-14T18:59:45.918Z,9.00
2023-05-14T19:01:50.902Z,8.70
2023-05-14T19:03:56.217Z,8.60
2023-05-14T19:06:01.654Z,8.80
2023-05-14T19:08:07.921Z,7.80
2023-05-14T19:10:13.160Z,8.80
2023-05-14T19:12:20.021Z,7.80
2023-05-14T19:14:24.868Z,8.90
2023-05-14T19:16:30.277Z,7.80
2023-05-14T19:18:35.367Z,8.00
2023-05-14T19:20:40.088Z,8.60
2023-05-14T19:22:45.048Z,8.80
2023-05-14T19:27:02.565Z,8.60
2023-05-14T19:29:07.795Z,7.70
2023-05-14T19:31:13.131Z,7.30
2023-05-14T19:33:17.916Z,8.20
2023-05-14T19:35:26.731Z,6.80
2023-05-14T19:37:31.990Z,7.90
2023-05-14T19:39:36.944Z,7.40
2023-05-14T19:41:44.940Z,8.40
2023-05-14T19:43:50.391Z,8.40
2023-05-14T19:45:55.379Z,7.80
2023-05-14T19:48:00.335Z,7.90
2023-05-14T19:50:05.998Z,8.00
2023-05-14T19:52:10.934Z,6.70
2023-05-14T19:54:15.939Z,8.40
2023-05-14T19:56:20.732Z,7.80
2023-05-14T19:58:26.522Z,6.50
2023-05-14T20:00:31.357Z,7.10
2023-05-14T20:02:36.162Z,8.00
2023-05-14T20:04:40.901Z,8.10
2023-05-14T20:06:46.429Z,7.80
2023-05-14T20:08:51.716Z,8.30
2023-05-14T20:10:56.435Z,7.40
2023-05-14T20:13:01.453Z,7.50
2023-05-14T20:15:07.681Z,7.70
2023-05-14T20:17:12.546Z,7.20
2023-05-14T20:19:17.499Z,7.80
2023-05-14T20:21:22.999Z,6.70
2023-05-14T20:23:28.354Z,7.50
2023-05-14T20:25:33.639Z,8.20
2023-05-14T20:27:38.614Z,7.30
2023-05-14T20:29:43.626Z,6.30
2023-05-14T20:31:48.322Z,7.20
2023-05-14T20:33:52.985Z,6.30
2023-05-14T20:35:57.781Z,7.00
2023-05-14T20:38:02.578Z,6.50
2023-05-14T20:40:09.428Z,6.70
2023-05-14T20:42:14.284Z,6.90
2023-05-14T20:44:20.612Z,7.30
2023-05-14T20:46:25.694Z,7.80
2023-05-14T20:48:30.471Z,7.30
2023-05-14T20:50:35.140Z,8.00
2023-05-14T20:52:39.809Z,7.60
2023-05-14T20:54:47.797Z,7.50
2023-05-14T20:56:55.315Z,8.20
2023-05-14T20:59:00.054Z,8.20
2023-05-14T21:01:04.850Z,8.10
2023-05-14T21:03:09.865Z,8.00
2023-05-14T21:05:16.641Z,8.00
2023-05-14T21:07:21.297Z,7.90
2023-05-14T21:09:26.037Z,7.90
2023-05-14T21:11:30.705Z,9.20
2023-05-14T21:13:35.463Z,7.70
2023-05-14T21:15:40.260Z,7.00
2023-05-14T21:17:45.032Z,8.70
2023-05-14T21:19:49.814Z,8.30
2023-05-14T21:21:54.531Z,8.20
2023-05-14T21:23:59.216Z,8.50
2023-05-14T21:26:04.093Z,7.50
2023-05-14T21:28:09.312Z,7.30
2023-05-14T21:30:15.502Z,8.70
2023-05-14T21:32:20.163Z,7.60
2023-05-14T21:34:25.005Z,9.30
2023-05-14T21:36:29.656Z,8.70
2023-05-14T21:38:34.386Z,7.40
2023-05-14T21:40:39.200Z,7.70
2023-05-14T21:42:43.861Z,7.60
2023-05-14T21:44:48.550Z,7.80
2023-05-14T21:46:53.336Z,7.00
2023-05-14T21:48:58.354Z,7.20
2023-05-14T21:51:03.229Z,7.50
2023-05-14T21:53:08.095Z,7.50
2023-05-14T21:55:12.881Z,8.10
2023-05-14T21:57:17.648Z,9.20
2023-05-14T21:59:22.397Z,7.30
2023-05-14T22:01:27.240Z,7.50
2023-05-14T22:03:32.031Z,7.50
2023-05-14T22:05:36.700Z,7.00
2023-05-14T22:07:41.664Z,7.60
2023-05-14T22:09:46.317Z,7.30
2023-05-14T22:11:51.040Z,7.60
2023-05-14T22:13:58.218Z,7.30
2023-05-14T22:16:12.196Z,7.50
2023-05-14T22:18:18.416Z,7.70
2023-05-14T22:20:23.263Z,7.80
2023-05-14T22:22:28.221Z,7.90
2023-05-14T22:24:32.900Z,8.40
2023-05-14T22:26:37.596Z,9.20
2023-05-14T22:28:42.213Z,8.00
2023-05-14T22:30:46.881Z,9.20
2023-05-14T22:32:51.592Z,8.80
2023-05-14T22:34:56.312Z,9.10
2023-05-14T22:37:01.572Z,9.40
2023-05-14T22:39:06.315Z,9.30
2023-05-14T22:41:11.004Z,8.60
2023-05-14T22:43:15.696Z,8.90
2023-05-14T22:45:20.265Z,8.80
2023-05-14T22:47:24.924Z,9.50
2023-05-14T22:49:29.664Z,8.40
2023-05-14T22:51:34.346Z,8.70
2023-05-14T22:53:39.118Z,8.30
2023-05-14T22:55:43.862Z,8.50
2023-05-14T22:57:48.590Z,8.40
2023-05-14T22:59:53.246Z,8.70
2023-05-14T23:01:57.873Z,9.50
2023-05-14T23:04:02.967Z,9.00
2023-05-14T23:06:08.206Z,9.20
2023-05-14T23:08:12.827Z,8.30
2023-05-14T23:10:17.528Z,9.10
2023-05-14T23:12:22.179Z,9.60
2023-05-14T23:14:26.810Z,9.80
2023-05-14T23:16:31.446Z,9.60
2023-05-14T23:18:36.287Z,9.30
2023-05-14T23:20:41.102Z,9.50
2023-05-14T23:22:45.769Z,10.30
2023-05-14T23:24:50.438Z,10.50
2023-05-14T23:26:55.254Z,10.40
2023-05-14T23:28:59.928Z,10.60
2023-05-14T23:31:04.619Z,10.70
2023-05-14T23:33:09.355Z,10.40
2023-05-14T23:35:17.365Z,10.40
2023-05-14T23:37:22.249Z,10.60
2023-05-14T23:39:26.935Z,10.30
2023-05-14T23:41:31.582Z,9.50
2023-05-14T23:43:36.274Z,8.80
2023-05-14T23:45:41.470Z,8.50
2023-05-14T23:47:46.384Z,8.50
2023-05-14T23:49:51.061Z,7.90
2023-05-14T23:51:55.710Z,8.00
2023-05-14T23:54:00.438Z,7.70
2023-05-14T23:56:05.438Z,7.00
2023-05-14T23:58:10.246Z,7.80
